Blue Vision — MRNB — position and weather

sailwx.info

Track history (hours):
 
Tides and Currents Weather Stations Pressure Air Temp Water Temp Dewpoint Dewpoint Depression Visibility Wind Speed Wind Dir Waves Ship Positions

Blue Vision

Last reported at 2017-Jun-27 15:42 UTC. Time now 2017-Jun-27 22:36 UTC.
Position N 43°27' E 006°58'.

Length 45 m; draft 3 m.

Type: Pleasure craft. MMSI: 235054475.

Date/timePositionNaut miles runAvg speedWind from/ knotsBaromVisibWave heightAir tempDewpointWater temp
2017-Jun-27 15:42N 43°27' E 006°58'312.8
2017-Jun-27 15:30N 43°30' E 006°58'1 1.9
2017-Jun-27 15:00N 43°30' E 006°57'0 0.0
2017-Jun-27 14:00N 43°30' E 006°57'0 0.0
2017-Jun-27 13:30N 43°30' E 006°57'0 0.0
2017-Jun-27 13:00N 43°30' E 006°57'4 6.4
2017-Jun-27 12:25N 43°32' E 007°02'0 0.0
2017-Jun-27 11:52N 43°32' E 007°02'  
2017-Jun-24 06:19N 43°33' E 007°01'0 0.9
2017-Jun-24 06:00N 43°33' E 007°01'0 0.5
2017-Jun-24 05:28N 43°32' E 007°01'0 0.0
2017-Jun-24 04:58N 43°32' E 007°01'0 0.0
2017-Jun-24 04:25N 43°32' E 007°01'0 0.0
2017-Jun-24 03:58N 43°32' E 007°01'0 0.0
2017-Jun-24 03:22N 43°32' E 007°01'0 0.0
2017-Jun-24 02:58N 43°32' E 007°01'0 0.0
2017-Jun-24 02:25N 43°32' E 007°01'0 0.0
2017-Jun-24 01:58N 43°32' E 007°01'0 0.0
2017-Jun-24 01:28N 43°32' E 007°01'0 0.0
2017-Jun-23 23:52N 43°32' E 007°01'0 0.0
2017-Jun-23 23:19N 43°32' E 007°01'0 0.0
2017-Jun-23 22:58N 43°32' E 007°01'0 0.0
2017-Jun-23 22:16N 43°32' E 007°01'0 0.0
2017-Jun-23 21:58N 43°32' E 007°01'2 0.5
2017-Jun-23 18:14N 43°31' E 007°01'2 6.6
2017-Jun-23 17:56N 43°30' E 007°03'2 3.0
2017-Jun-23 17:19N 43°31' E 007°04'0 0.0
2017-Jun-23 17:00N 43°31' E 007°04'0 0.0
2017-Jun-23 16:30N 43°31' E 007°04'0 0.0
2017-Jun-23 16:00N 43°31' E 007°04'0 0.0
2017-Jun-23 15:24N 43°31' E 007°04'0 0.0
2017-Jun-23 15:00N 43°31' E 007°04'0 0.0
2017-Jun-23 14:30N 43°31' E 007°04'  
Track history (hours):
 
Tides and Currents Weather Stations Pressure Air Temp Water Temp Dewpoint Dewpoint Depression Visibility Wind Speed Wind Dir Waves Ship Positions

Blue Vision

Last reported at 2017-Jun-27 15:42 UTC. Time now 2017-Jun-27 22:36 UTC.
Position N 43°27' E 006°58'.

Length 45 m; draft 3 m.

Type: Pleasure craft. MMSI: 235054475.

Date/timePositionNaut miles runAvg speedWind from/ knotsBaromVisibWave heightAir tempDewpointWater temp
2017-Jun-27 15:42N 43°27' E 006°58'312.8
2017-Jun-27 15:30N 43°30' E 006°58'1 1.9
2017-Jun-27 15:00N 43°30' E 006°57'0 0.0
2017-Jun-27 14:00N 43°30' E 006°57'0 0.0
2017-Jun-27 13:30N 43°30' E 006°57'0 0.0
2017-Jun-27 13:00N 43°30' E 006°57'4 6.4
2017-Jun-27 12:25N 43°32' E 007°02'0 0.0
2017-Jun-27 11:52N 43°32' E 007°02'  
2017-Jun-24 06:19N 43°33' E 007°01'0 0.9
2017-Jun-24 06:00N 43°33' E 007°01'0 0.5
2017-Jun-24 05:28N 43°32' E 007°01'0 0.0
2017-Jun-24 04:58N 43°32' E 007°01'0 0.0
2017-Jun-24 04:25N 43°32' E 007°01'0 0.0
2017-Jun-24 03:58N 43°32' E 007°01'0 0.0
2017-Jun-24 03:22N 43°32' E 007°01'0 0.0
2017-Jun-24 02:58N 43°32' E 007°01'0 0.0
2017-Jun-24 02:25N 43°32' E 007°01'0 0.0
2017-Jun-24 01:58N 43°32' E 007°01'0 0.0
2017-Jun-24 01:28N 43°32' E 007°01'0 0.0
2017-Jun-23 23:52N 43°32' E 007°01'0 0.0
2017-Jun-23 23:19N 43°32' E 007°01'0 0.0
2017-Jun-23 22:58N 43°32' E 007°01'0 0.0
2017-Jun-23 22:16N 43°32' E 007°01'0 0.0
2017-Jun-23 21:58N 43°32' E 007°01'2 0.5
2017-Jun-23 18:14N 43°31' E 007°01'2 6.6
2017-Jun-23 17:56N 43°30' E 007°03'2 3.0
2017-Jun-23 17:19N 43°31' E 007°04'0 0.0
2017-Jun-23 17:00N 43°31' E 007°04'0 0.0
2017-Jun-23 16:30N 43°31' E 007°04'0 0.0
2017-Jun-23 16:00N 43°31' E 007°04'0 0.0
2017-Jun-23 15:24N 43°31' E 007°04'0 0.0
2017-Jun-23 15:00N 43°31' E 007°04'0 0.0
2017-Jun-23 14:30N 43°31' E 007°04'  

Dump ship's entire track history